Hauptseite
METAR-TAF:

METAR-TAF

Flughäfen :

Militärflugplatz Alcantarilla

Murcia, Spanien

Breite: 37-57N, Länge: 001-14W, Höhe: 75 m

Beobachtung

Neuester Wetterbericht von vor 19 Minuten, um 06:30 UTC
Wind 1 kt aus unterschiedlichen Richtungen
Temperatur 12°C
Luftfeuchtigkeit 100%
Luftdruck 1021 hPa
Sichtweite: 4500 m
Leicht bewölkt in der Höhe von 3000 ft

METAR: LERI 120630Z VRB01KT 9999 4500SW FEW030 12/12 Q1021 NOSIG

Zeit: 08:49 (06:49 UTC)

Prognose

Neuester Wetterbericht von vor 4 Stunden und 49 Minuten, um 02:00 UTC
Gültige Prognose vom 12 um 03 UTC bis 13 um 03 UTC
Wind 9 kt aus Ost/Nordost
Sichtweite 10 km oder mehr
keine Wolken unter 1500 m und keine Kumulonimbus oder Gewitterwolken

TAF: LERI 120200Z 1203/1303 06009KT CAVOK TX17/1216Z TN12/1206Z

Wetterbeobachtungen und Prognosen von mehr als 4000 Flughäfen (METAR und TAF Bericht).

Die verfügbaren Stationen werden durch gelbe und rote Markierungen auf der Karte dargestellt.

Führen Sie die Maus auf sie, um den Namen der Station zu sehen.

Darauf klicken, um die Beobachtung von Wetterbeobachtungen und Prognosen zu sehen.

Um die Karte zu ändern : klicken Sie auf den grünen Tasten mit einem schwarzen Kreuz Zum Vergrößern, auf den grünen Button mit einem Gedankenstrich zu verkleinern, oder auf die grünen Pfeile für benachbarte Karten.


METAR-TAF: